Time;durP1;ratioP1;P1;durP2;ratioP2;P2;SDS_P1;SDS_P2;PMS_P1;PMS_P2;Temp;Humidity;BMP_temperature;BMP_pressure;BME280_temperature;BME280_humidity;BME280_pressure;Samples;Min_cycle;Max_cycle;Signal;HPM_P1;HPM_P2
2023/06/14 00:02:22;;;;;;;10.00;4.07;;;;;;;;;;6206951;23;20458;-45
2023/06/14 00:04:52;;;;;;;10.38;3.90;;;;;;;;;;6207214;23;20303;-43
2023/06/14 00:07:36;;;;;;;9.45;4.00;;;;;;;;;;6209102;23;20397;-46
2023/06/14 00:10:04;;;;;;;6.57;4.25;;;;;;;;;;6209331;23;20032;-48
2023/06/14 00:12:39;;;;;;;6.50;3.92;;;;;;;;;;6208534;23;20059;-46
2023/06/14 00:15:10;;;;;;;6.07;3.75;;;;;;;;;;6210035;23;20021;-45
2023/06/14 00:17:38;;;;;;;5.40;4.20;;;;;;;;;;6203716;23;20099;-47
2023/06/14 00:20:12;;;;;;;7.05;4.18;;;;;;;;;;6209648;23;20056;-44
2023/06/14 00:22:39;;;;;;;8.60;4.05;;;;;;;;;;6208888;23;20784;-50
2023/06/14 00:25:07;;;;;;;8.45;3.85;;;;;;;;;;6210757;23;20047;-50
2023/06/14 00:27:55;;;;;;;10.85;4.32;;;;;;;;;;6209684;23;20040;-49
2023/06/14 00:30:22;;;;;;;11.60;3.70;;;;;;;;;;6206223;23;20021;-50
2023/06/14 00:32:57;;;;;;;8.13;4.07;;;;;;;;;;6206902;23;20098;-48
2023/06/14 00:35:25;;;;;;;6.68;4.05;;;;;;;;;;6207767;23;20556;-48
2023/06/14 00:37:54;;;;;;;;;;;;;;;;;;6206836;23;20020;-47
2023/06/14 00:40:28;;;;;;;5.05;4.03;;;;;;;;;;6204736;23;19920;-48
2023/06/14 00:42:56;;;;;;;6.72;4.00;;;;;;;;;;6209328;23;20024;-50
2023/06/14 00:45:23;;;;;;;8.20;4.07;;;;;;;;;;6208328;23;20016;-51
2023/06/14 00:47:58;;;;;;;7.07;4.43;;;;;;;;;;6209271;23;20094;-50
2023/06/14 00:50:26;;;;;;;6.03;4.43;;;;;;;;;;6208065;23;20036;-50
2023/06/14 00:53:01;;;;;;;7.68;5.00;;;;;;;;;;6207419;23;20090;-50
2023/06/14 00:55:28;;;;;;;9.23;4.88;;;;;;;;;;6208725;23;20024;-57
2023/06/14 00:57:56;;;;;;;6.43;3.88;;;;;;;;;;6208352;23;20513;-57
2023/06/14 01:00:30;;;;;;;7.82;4.43;;;;;;;;;;6207708;23;20016;-56
2023/06/14 01:02:57;;;;;;;5.13;4.43;;;;;;;;;;6207972;23;20035;-59
2023/06/14 01:05:25;;;;;;;8.50;4.53;;;;;;;;;;6208160;23;20032;-55
2023/06/14 01:07:59;;;;;;;8.40;4.15;;;;;;;;;;6205130;23;20111;-58
2023/06/14 01:10:45;;;;;;;9.18;4.68;;;;;;;;;;6204824;23;20545;-46
2023/06/14 01:13:24;;;;;;;8.80;4.13;;;;;;;;;;6209047;23;20028;-52
2023/06/14 01:15:51;;;;;;;8.77;5.28;;;;;;;;;;6205889;23;20020;-50
2023/06/14 01:18:18;;;;;;;10.60;4.40;;;;;;;;;;6205550;23;20482;-50
2023/06/14 01:20:54;;;;;;;8.00;5.05;;;;;;;;;;6208076;23;20025;-50
2023/06/14 01:23:23;;;;;;;6.60;4.38;;;;;;;;;;6209028;23;20362;-45
2023/06/14 01:25:56;;;;;;;8.27;4.70;;;;;;;;;;6207928;23;20458;-49
2023/06/14 01:28:24;;;;;;;11.20;5.47;;;;;;;;;;6210104;23;20028;-51
2023/06/14 01:30:53;;;;;;;9.50;5.70;;;;;;;;;;6207978;23;20067;-48
2023/06/14 01:33:28;;;;;;;9.68;5.07;;;;;;;;;;6207171;23;20047;-50
2023/06/14 01:35:55;;;;;;;6.65;4.68;;;;;;;;;;6208502;23;20020;-52
2023/06/14 01:38:30;;;;;;;6.72;4.97;;;;;;;;;;6208618;23;20025;-55
2023/06/14 01:40:59;;;;;;;7.88;5.18;;;;;;;;;;6208396;23;20028;-59
2023/06/14 01:43:33;;;;;;;11.18;5.22;;;;;;;;;;6207112;23;20087;-57
2023/06/14 01:46:01;;;;;;;7.95;4.75;;;;;;;;;;6205346;23;20540;-59
2023/06/14 01:48:35;;;;;;;12.60;5.00;;;;;;;;;;6206514;23;20028;-47
2023/06/14 01:51:02;;;;;;;7.68;5.38;;;;;;;;;;6207404;23;20067;-50
2023/06/14 01:53:30;;;;;;;9.82;4.93;;;;;;;;;;6208074;23;20032;-59
2023/06/14 01:56:03;;;;;;;7.38;4.93;;;;;;;;;;6206725;23;20025;-60
2023/06/14 01:58:31;;;;;;;;;;;;;;;;;;6209595;23;20027;-59
2023/06/14 02:01:06;;;;;;;7.35;4.70;;;;;;;;;;6208020;23;19923;-58
2023/06/14 02:03:34;;;;;;;8.73;5.40;;;;;;;;;;6206026;23;20135;-58
2023/06/14 02:06:01;;;;;;;6.85;4.95;;;;;;;;;;6206442;23;20024;-59
2023/06/14 02:08:35;;;;;;;12.75;5.30;;;;;;;;;;6207114;23;20029;-47
2023/06/14 02:11:09;;;;;;;11.18;5.15;;;;;;;;;;6206899;23;20021;-52
2023/06/14 02:13:44;;;;;;;11.02;5.03;;;;;;;;;;6208534;23;20025;-47
2023/06/14 02:16:12;;;;;;;7.43;5.22;;;;;;;;;;6206604;23;20028;-45
2023/06/14 02:18:46;;;;;;;9.10;4.90;;;;;;;;;;6197893;23;20063;-58
2023/06/14 02:21:20;;;;;;;10.88;4.93;;;;;;;;;;6207939;23;20075;-43
2023/06/14 02:23:47;;;;;;;8.13;5.25;;;;;;;;;;6206615;23;20028;-43
2023/06/14 02:26:22;;;;;;;6.93;5.38;;;;;;;;;;6205498;23;20020;-41
2023/06/14 02:28:56;;;;;;;9.60;5.20;;;;;;;;;;6207560;23;20079;-46
2023/06/14 02:31:24;;;;;;;7.25;5.38;;;;;;;;;;6207903;23;20052;-44
2023/06/14 02:33:58;;;;;;;6.55;4.85;;;;;;;;;;6206238;23;20067;-44
2023/06/14 02:36:26;;;;;;;10.43;5.85;;;;;;;;;;6207808;23;20020;-49
2023/06/14 02:38:54;;;;;;;8.55;5.13;;;;;;;;;;6207029;23;20332;-58
2023/06/14 02:41:27;;;;;;;12.40;5.75;;;;;;;;;;6207516;23;20024;-58
2023/06/14 02:43:55;;;;;;;13.35;5.60;;;;;;;;;;6202624;23;20056;-58
2023/06/14 02:46:29;;;;;;;8.18;4.78;;;;;;;;;;6207719;23;20023;-59
2023/06/14 02:48:56;;;;;;;7.38;4.88;;;;;;;;;;6207609;23;20024;-58
2023/06/14 02:51:24;;;;;;;6.68;5.25;;;;;;;;;;6208079;23;20103;-56
2023/06/14 02:53:58;;;;;;;8.23;5.40;;;;;;;;;;6207928;23;20024;-46
2023/06/14 02:56:26;;;;;;;7.05;5.65;;;;;;;;;;6206041;23;20395;-42
2023/06/14 02:59:00;;;;;;;7.57;5.00;;;;;;;;;;6207904;23;20052;-46
2023/06/14 03:01:33;;;;;;;9.32;5.25;;;;;;;;;;6206549;23;20024;-46
2023/06/14 03:04:08;;;;;;;7.57;4.85;;;;;;;;;;6206409;23;20024;-41
2023/06/14 03:06:36;;;;;;;9.13;5.07;;;;;;;;;;6207236;23;20032;-45
2023/06/14 03:09:09;;;;;;;9.80;5.32;;;;;;;;;;6206361;23;20024;-46
2023/06/14 03:11:43;;;;;;;11.25;5.53;;;;;;;;;;6206029;23;20111;-42
2023/06/14 03:14:11;;;;;;;7.15;5.20;;;;;;;;;;6206671;23;20391;-48
2023/06/14 03:16:45;;;;;;;6.90;5.20;;;;;;;;;;6206309;23;20024;-48
2023/06/14 03:19:19;;;;;;;5.75;4.25;;;;;;;;;;6203958;23;20031;-42
2023/06/14 03:21:53;;;;;;;6.32;4.95;;;;;;;;;;6205858;23;20028;-43
2023/06/14 03:24:20;;;;;;;8.82;4.97;;;;;;;;;;6206509;23;20504;-47
2023/06/14 03:26:47;;;;;;;7.57;4.90;;;;;;;;;;6207276;23;20027;-46
2023/06/14 03:29:21;;;;;;;7.75;4.90;;;;;;;;;;6206532;23;20047;-43
2023/06/14 03:32:02;;;;;;;10.30;5.40;;;;;;;;;;6206683;23;20478;-46
2023/06/14 03:34:38;;;;;;;7.03;4.85;;;;;;;;;;6206860;23;20086;-43
2023/06/14 03:37:06;;;;;;;7.40;5.35;;;;;;;;;;6206303;23;20090;-45
2023/06/14 03:39:45;;;;;;;9.93;5.57;;;;;;;;;;6206178;23;20490;-43
2023/06/14 03:42:14;;;;;;;11.35;5.55;;;;;;;;;;6207561;23;20059;-42
2023/06/14 03:44:48;;;;;;;9.35;5.18;;;;;;;;;;6207387;23;20071;-47
2023/06/14 03:47:16;;;;;;;6.85;5.45;;;;;;;;;;6206626;23;20355;-46
2023/06/14 03:49:43;;;;;;;6.18;5.28;;;;;;;;;;6205448;23;20355;-47
2023/06/14 03:52:17;;;;;;;8.55;5.25;;;;;;;;;;6204148;23;20533;-58
2023/06/14 03:54:46;;;;;;;9.05;5.35;;;;;;;;;;6204377;23;20063;-58
2023/06/14 03:57:23;;;;;;;9.68;4.95;;;;;;;;;;6214411;23;20028;-58
2023/06/14 03:59:50;;;;;;;;;;;;;;;;;;6205813;23;20028;-60
2023/06/14 04:02:18;;;;;;;7.38;5.00;;;;;;;;;;6201607;23;19920;-58
2023/06/14 04:04:54;;;;;;;20.65;5.88;;;;;;;;;;6204361;23;20052;-58
2023/06/14 04:07:22;;;;;;;13.75;5.72;;;;;;;;;;6202401;23;20047;-52
2023/06/14 04:09:56;;;;;;;14.63;5.10;;;;;;;;;;6204559;23;20406;-44
2023/06/14 04:12:23;;;;;;;9.05;5.05;;;;;;;;;;6205153;23;20111;-48
2023/06/14 04:14:57;;;;;;;9.93;5.35;;;;;;;;;;6206102;23;20031;-50
2023/06/14 04:17:48;;;;;;;10.57;5.20;;;;;;;;;;6202554;23;20335;-50
2023/06/14 04:20:30;;;;;;;10.10;4.30;;;;;;;;;;6203929;23;20028;-47
2023/06/14 04:22:57;;;;;;;6.53;5.05;;;;;;;;;;6207258;23;20024;-47
2023/06/14 04:25:32;;;;;;;7.30;4.53;;;;;;;;;;6206342;23;20467;-48
2023/06/14 04:27:59;;;;;;;8.85;4.45;;;;;;;;;;6203074;23;20021;-45
2023/06/14 04:30:33;;;;;;;7.45;4.50;;;;;;;;;;6208526;23;20024;-49
2023/06/14 04:33:00;;;;;;;10.70;4.75;;;;;;;;;;6204149;23;20016;-52
2023/06/14 04:35:28;;;;;;;;;;;;;;;;;;6203787;23;20259;-49
2023/06/14 04:38:04;;;;;;;10.73;4.55;;;;;;;;;;6206515;23;19920;-48
2023/06/14 04:40:33;;;;;;;7.43;4.47;;;;;;;;;;6207063;23;20032;-52
2023/06/14 04:43:07;;;;;;;7.90;4.60;;;;;;;;;;6205927;23;20467;-49
2023/06/14 04:45:36;;;;;;;7.53;4.65;;;;;;;;;;6204147;23;20051;-48
2023/06/14 04:48:04;;;;;;;13.43;5.03;;;;;;;;;;6206455;23;20052;-49
2023/06/14 04:50:40;;;;;;;11.13;4.90;;;;;;;;;;6207492;23;20021;-53
2023/06/14 04:53:08;;;;;;;10.70;5.25;;;;;;;;;;6206785;23;20025;-48
2023/06/14 04:55:44;;;;;;;12.73;4.60;;;;;;;;;;6209232;23;20102;-48
2023/06/14 04:58:12;;;;;;;9.68;4.95;;;;;;;;;;6209145;23;20021;-48
2023/06/14 05:00:41;;;;;;;8.77;5.15;;;;;;;;;;6209365;23;20466;-47
2023/06/14 05:03:15;;;;;;;9.65;5.25;;;;;;;;;;6210335;23;20044;-48
2023/06/14 05:05:43;;;;;;;11.90;5.40;;;;;;;;;;6206782;23;20048;-44
2023/06/14 05:08:16;;;;;;;7.68;4.93;;;;;;;;;;6208292;23;20017;-46
2023/06/14 05:10:43;;;;;;;9.27;5.13;;;;;;;;;;6209300;23;20532;-48
2023/06/14 05:13:11;;;;;;;14.95;5.63;;;;;;;;;;6208911;23;20020;-59
2023/06/14 05:15:45;;;;;;;7.05;5.07;;;;;;;;;;6203747;23;20047;-47
2023/06/14 05:18:19;;;;;;;;;;;;;;;;;;6204854;23;20063;-46
2023/06/14 05:21:00;;;;;;;13.80;5.40;;;;;;;;;;6208602;23;19923;-47
2023/06/14 05:23:27;;;;;;;9.05;5.20;;;;;;;;;;6203742;23;20039;-50
2023/06/14 05:26:04;;;;;;;9.38;5.15;;;;;;;;;;6206194;23;20625;-50
2023/06/14 05:28:37;;;;;;;9.63;5.35;;;;;;;;;;6206310;23;20024;-50
2023/06/14 05:31:05;;;;;;;9.43;5.75;;;;;;;;;;6203782;23;20032;-48
2023/06/14 05:33:32;;;;;;;;;;;;;;;;;;6205922;23;20116;-49
2023/06/14 05:36:06;;;;;;;8.02;4.90;;;;;;;;;;6206495;23;19920;-48
2023/06/14 05:38:35;;;;;;;11.10;5.38;;;;;;;;;;6202338;23;20036;-49
2023/06/14 05:41:09;;;;;;;7.47;5.10;;;;;;;;;;6205425;23;20082;-56
2023/06/14 05:43:37;;;;;;;10.40;5.15;;;;;;;;;;6203557;23;20455;-57
2023/06/14 05:46:04;;;;;;;11.02;5.45;;;;;;;;;;6198728;23;20040;-51
2023/06/14 05:48:38;;;;;;;9.68;4.95;;;;;;;;;;6204939;23;20020;-47
2023/06/14 05:51:08;;;;;;;6.70;4.90;;;;;;;;;;6205125;23;20025;-46
2023/06/14 05:53:42;;;;;;;7.13;4.90;;;;;;;;;;6205884;23;20536;-51
2023/06/14 05:56:09;;;;;;;10.88;5.15;;;;;;;;;;6208564;23;20265;-47
2023/06/14 05:58:37;;;;;;;10.60;5.47;;;;;;;;;;6205685;23;20029;-44
2023/06/14 06:01:11;;;;;;;11.48;5.15;;;;;;;;;;6205562;23;20028;-46
2023/06/14 06:03:38;;;;;;;8.90;5.20;;;;;;;;;;6209107;23;20067;-43
2023/06/14 06:06:13;;;;;;;8.90;5.30;;;;;;;;;;6208397;23;20099;-45
2023/06/14 06:08:40;;;;;;;9.45;5.40;;;;;;;;;;6206933;23;20032;-45
2023/06/14 06:11:08;;;;;;;15.73;5.10;;;;;;;;;;6208490;23;20029;-49
2023/06/14 06:13:41;;;;;;;8.52;5.65;;;;;;;;;;6206997;23;20025;-44
2023/06/14 06:16:08;;;;;;;13.70;4.57;;;;;;;;;;6209057;23;20075;-46
2023/06/14 06:18:50;;;;;;;8.38;5.13;;;;;;;;;;6204784;23;20082;-47
2023/06/14 06:21:17;;;;;;;6.82;4.85;;;;;;;;;;6208208;23;20079;-44
2023/06/14 06:23:51;;;;;;;15.90;5.53;;;;;;;;;;6207753;23;20474;-46
2023/06/14 06:26:18;;;;;;;8.13;5.13;;;;;;;;;;6209333;23;20048;-44
2023/06/14 06:28:46;;;;;;;10.40;5.43;;;;;;;;;;6207295;23;20803;-59
2023/06/14 06:31:19;;;;;;;8.40;4.88;;;;;;;;;;6207412;23;20070;-58
2023/06/14 06:33:47;;;;;;;;;;;;;;;;;;6208084;23;20024;-59
2023/06/14 06:36:14;;;;;;;9.40;5.25;;;;;;;;;;6208542;23;19919;-56
2023/06/14 06:38:49;;;;;;;7.85;4.85;;;;;;;;;;6203608;23;20020;-44
2023/06/14 06:41:16;;;;;;;8.52;4.53;;;;;;;;;;6208661;23;20094;-58
2023/06/14 06:43:43;;;;;;;7.53;4.88;;;;;;;;;;6204560;23;20082;-59
2023/06/14 06:46:18;;;;;;;10.40;4.63;;;;;;;;;;6205594;23;20028;-58
2023/06/14 06:48:46;;;;;;;11.77;4.72;;;;;;;;;;6206524;23;20020;-58
2023/06/14 06:51:19;;;;;;;7.82;5.00;;;;;;;;;;6206182;23;20528;-59
2023/06/14 06:53:52;;;;;;;11.80;4.75;;;;;;;;;;6207101;23;20025;-59
2023/06/14 06:56:26;;;;;;;8.70;4.88;;;;;;;;;;6209059;23;20012;-60
2023/06/14 06:58:53;;;;;;;14.77;4.75;;;;;;;;;;6205285;23;20028;-60
2023/06/14 07:01:21;;;;;;;8.45;4.28;;;;;;;;;;6208541;23;20493;-59
2023/06/14 07:03:56;;;;;;;9.93;5.10;;;;;;;;;;6208428;23;20028;-61
2023/06/14 07:06:27;;;;;;;6.15;4.05;;;;;;;;;;6207326;23;20075;-58
2023/06/14 07:09:01;;;;;;;12.32;4.38;;;;;;;;;;6205632;23;20552;-59
2023/06/14 07:11:28;;;;;;;6.88;4.80;;;;;;;;;;6206859;23;20020;-51
2023/06/14 07:13:55;;;;;;;10.80;4.57;;;;;;;;;;6206165;23;20356;-51
2023/06/14 07:16:29;;;;;;;7.57;4.68;;;;;;;;;;6207832;23;20470;-49
2023/06/14 07:19:03;;;;;;;7.75;4.50;;;;;;;;;;6204962;23;20035;-51
2023/06/14 07:21:44;;;;;;;10.63;4.72;;;;;;;;;;6206507;23;20025;-49
2023/06/14 07:24:11;;;;;;;6.72;4.30;;;;;;;;;;6207481;23;20035;-47
2023/06/14 07:26:50;;;;;;;10.48;4.57;;;;;;;;;;6207903;23;20025;-46
2023/06/14 07:29:17;;;;;;;9.77;4.65;;;;;;;;;;6207429;23;20078;-49
2023/06/14 07:31:44;;;;;;;9.80;4.68;;;;;;;;;;6205407;23;20028;-45
2023/06/14 07:34:18;;;;;;;6.65;4.35;;;;;;;;;;6207220;23;20020;-49
2023/06/14 07:36:47;;;;;;;7.85;4.07;;;;;;;;;;6204150;23;20051;-53
2023/06/14 07:39:21;;;;;;;9.85;4.82;;;;;;;;;;6206833;23;20024;-58
2023/06/14 07:41:49;;;;;;;8.52;4.30;;;;;;;;;;6207876;23;20025;-57
2023/06/14 07:44:16;;;;;;;8.15;3.97;;;;;;;;;;6204965;23;20028;-55
2023/06/14 07:46:50;;;;;;;5.95;4.25;;;;;;;;;;6207233;23;20541;-55
2023/06/14 07:49:17;;;;;;;8.38;4.35;;;;;;;;;;6205541;23;20067;-57
2023/06/14 07:51:53;;;;;;;7.85;4.25;;;;;;;;;;6207701;23;20024;-56
2023/06/14 07:54:24;;;;;;;6.45;4.00;;;;;;;;;;6208352;23;20029;-46
2023/06/14 07:57:00;;;;;;;8.02;4.20;;;;;;;;;;6208359;23;20548;-47
2023/06/14 07:59:27;;;;;;;8.55;4.15;;;;;;;;;;6207668;23;20021;-45
2023/06/14 08:01:55;;;;;;;6.32;3.90;;;;;;;;;;6207527;23;20071;-44
2023/06/14 08:04:36;;;;;;;6.53;4.30;;;;;;;;;;6207151;23;20021;-49
2023/06/14 08:07:03;;;;;;;7.93;4.13;;;;;;;;;;6206966;23;20028;-46
2023/06/14 08:09:38;;;;;;;4.63;4.07;;;;;;;;;;6207875;23;20017;-48
2023/06/14 08:12:07;;;;;;;7.25;4.07;;;;;;;;;;6206833;23;20029;-47
2023/06/14 08:14:34;;;;;;;10.93;3.90;;;;;;;;;;6207541;23;20021;-44
2023/06/14 08:17:08;;;;;;;7.10;3.90;;;;;;;;;;6203766;23;20083;-48
2023/06/14 08:19:36;;;;;;;;;;;;;;;;;;6205107;23;20051;-48
2023/06/14 10:46:25;;;;;;;6.07;3.40;;;;;;;;;;5761289;22;9231098;-82
2023/06/14 10:49:00;;;;;;;6.75;3.40;;;;;;;;;;6148959;23;20028;-82
2023/06/14 10:51:30;;;;;;;7.43;3.65;;;;;;;;;;6148119;23;20358;-82
2023/06/14 10:53:59;;;;;;;8.40;3.40;;;;;;;;;;6149812;23;20395;-82
2023/06/14 10:56:33;;;;;;;6.60;3.55;;;;;;;;;;6149981;23;20025;-83
2023/06/14 10:59:01;;;;;;;5.68;3.63;;;;;;;;;;6150321;23;20029;-85
2023/06/14 11:01:47;;;;;;;10.75;3.47;;;;;;;;;;6149664;23;20025;-82
2023/06/14 11:04:19;;;;;;;6.78;3.33;;;;;;;;;;6149397;23;20029;-83
2023/06/14 11:07:00;;;;;;;4.72;3.55;;;;;;;;;;6150698;23;20080;-85
2023/06/14 11:09:46;;;;;;;6.35;3.47;;;;;;;;;;6149158;23;20525;-82
2023/06/14 11:12:21;;;;;;;11.50;3.33;;;;;;;;;;6148900;23;20029;-82
2023/06/14 11:14:48;;;;;;;5.43;3.30;;;;;;;;;;6149517;23;20026;-82
2023/06/14 11:17:16;;;;;;;7.47;3.65;;;;;;;;;;6148778;23;20324;-85
2023/06/14 11:19:50;;;;;;;4.82;3.25;;;;;;;;;;6149850;23;20486;-83
2023/06/14 11:22:17;;;;;;;6.43;3.58;;;;;;;;;;6147981;23;20033;-84
2023/06/14 11:24:51;;;;;;;3.65;3.15;;;;;;;;;;6149764;23;20093;-83
2023/06/14 11:27:18;;;;;;;3.78;3.40;;;;;;;;;;6149329;23;20021;-83
2023/06/14 11:29:50;;;;;;;5.63;3.60;;;;;;;;;;6145273;23;20025;-85
2023/06/14 11:32:24;;;;;;;5.35;3.40;;;;;;;;;;6145721;23;20025;-84
2023/06/14 11:34:59;;;;;;;7.18;3.70;;;;;;;;;;6149777;23;20031;-85
2023/06/14 11:37:28;;;;;;;5.10;3.42;;;;;;;;;;6149499;23;20032;-84
2023/06/14 11:39:59;;;;;;;7.82;3.63;;;;;;;;;;6148317;23;20052;-84
2023/06/14 11:42:33;;;;;;;6.70;3.30;;;;;;;;;;6149286;23;20477;-83
2023/06/14 11:45:03;;;;;;;;;;;;;;;;;;6149265;23;20115;-84
2023/06/14 11:47:43;;;;;;;9.73;3.78;;;;;;;;;;6148769;23;19916;-84
2023/06/14 11:50:11;;;;;;;4.95;3.85;;;;;;;;;;6123464;23;20040;-81
2023/06/14 11:52:46;;;;;;;5.57;3.60;;;;;;;;;;6148825;23;20096;-82
2023/06/14 11:55:13;;;;;;;4.60;3.22;;;;;;;;;;6123311;23;20033;-84
2023/06/14 11:57:41;;;;;;;5.95;3.33;;;;;;;;;;6121905;23;20100;-83
2023/06/14 12:00:16;;;;;;;4.63;3.50;;;;;;;;;;6149497;23;20052;-82
2023/06/14 12:02:53;;;;;;;4.55;3.20;;;;;;;;;;6148912;23;20301;-81
2023/06/14 12:05:28;;;;;;;4.32;3.30;;;;;;;;;;6148318;23;20470;-81
2023/06/14 12:08:00;;;;;;;5.30;3.58;;;;;;;;;;6124020;23;20026;-83
2023/06/14 12:10:43;;;;;;;7.38;3.67;;;;;;;;;;6148203;23;20546;-83
2023/06/14 12:13:11;;;;;;;4.07;3.30;;;;;;;;;;6150055;23;20131;-83
2023/06/14 12:15:45;;;;;;;6.32;3.72;;;;;;;;;;6149933;23;20025;-84
2023/06/14 12:18:12;;;;;;;5.32;3.92;;;;;;;;;;6122273;23;20085;-84
2023/06/14 12:20:40;;;;;;;4.65;3.22;;;;;;;;;;6148715;23;20021;-83
2023/06/14 12:23:16;;;;;;;9.47;3.40;;;;;;;;;;6125710;23;20026;-82
2023/06/14 12:25:44;;;;;;;13.15;3.40;;;;;;;;;;6148402;23;20249;-84
2023/06/14 12:28:18;;;;;;;5.57;3.60;;;;;;;;;;6148742;23;20450;-82
2023/06/14 12:30:45;;;;;;;4.55;3.15;;;;;;;;;;6149625;23;20022;-84
2023/06/14 12:33:21;;;;;;;5.90;3.33;;;;;;;;;;6149324;23;20026;-83
2023/06/14 12:35:48;;;;;;;6.03;3.42;;;;;;;;;;6150300;23;20367;-83
2023/06/14 12:38:22;;;;;;;5.32;3.10;;;;;;;;;;6150667;23;20017;-83
2023/06/14 12:40:49;;;;;;;6.78;3.75;;;;;;;;;;6149468;23;20407;-84
2023/06/14 12:43:16;;;;;;;7.25;3.25;;;;;;;;;;6150151;23;20116;-83
2023/06/14 12:45:57;;;;;;;6.28;3.00;;;;;;;;;;6140244;23;20392;-84
2023/06/14 12:48:31;;;;;;;4.88;3.40;;;;;;;;;;6149289;23;20029;-83
2023/06/14 12:51:12;;;;;;;5.80;3.65;;;;;;;;;;6149213;23;20387;-82
2023/06/14 12:53:39;;;;;;;5.47;3.55;;;;;;;;;;6148978;23;20467;-84
2023/06/14 12:56:13;;;;;;;4.38;3.10;;;;;;;;;;6147565;23;20451;-85
2023/06/14 12:58:40;;;;;;;5.72;3.25;;;;;;;;;;6148199;23;20686;-85
2023/06/14 13:01:07;;;;;;;7.63;3.55;;;;;;;;;;6149938;23;20026;-84
2023/06/14 13:03:41;;;;;;;5.07;3.40;;;;;;;;;;6144968;23;20030;-85
2023/06/14 13:06:08;;;;;;;5.45;3.38;;;;;;;;;;6148650;23;20084;-84
2023/06/14 13:08:50;;;;;;;3.55;3.25;;;;;;;;;;6147711;23;20079;-85
2023/06/14 13:11:17;;;;;;;5.57;3.58;;;;;;;;;;6146689;23;20033;-84
2023/06/14 13:13:51;;;;;;;7.53;3.40;;;;;;;;;;6149292;23;20332;-85
2023/06/14 13:16:18;;;;;;;6.22;3.17;;;;;;;;;;6145713;23;20088;-83
2023/06/14 13:18:45;;;;;;;7.85;4.15;;;;;;;;;;6149062;23;20018;-81
2023/06/14 13:21:19;;;;;;;7.32;3.40;;;;;;;;;;6143538;23;20087;-85
2023/06/14 13:23:46;;;;;;;6.13;3.25;;;;;;;;;;6149207;23;20029;-85
2023/06/14 13:26:20;;;;;;;5.80;3.35;;;;;;;;;;6149489;23;20032;-82
2023/06/14 13:28:47;;;;;;;7.65;3.60;;;;;;;;;;6147181;23;20087;-84
2023/06/14 13:31:14;;;;;;;3.83;3.20;;;;;;;;;;6147923;23;20025;-85
2023/06/14 13:33:48;;;;;;;5.43;3.30;;;;;;;;;;6148988;23;20021;-85
2023/06/14 13:36:16;;;;;;;4.25;3.42;;;;;;;;;;6149417;23;20029;-84
2023/06/14 13:38:52;;;;;;;5.97;3.60;;;;;;;;;;6147232;23;20022;-85
2023/06/14 13:41:19;;;;;;;6.45;3.60;;;;;;;;;;6148812;23;20076;-85
2023/06/14 13:43:47;;;;;;;5.88;3.42;;;;;;;;;;6148320;23;20479;-84
2023/06/14 13:46:28;;;;;;;5.55;3.22;;;;;;;;;;6147386;23;20021;-83
2023/06/14 13:48:55;;;;;;;7.55;3.35;;;;;;;;;;6148395;23;20036;-86
2023/06/14 13:51:30;;;;;;;5.65;3.30;;;;;;;;;;6149063;23;20368;-84
2023/06/14 13:53:57;;;;;;;8.82;3.45;;;;;;;;;;6147577;23;20030;-85
2023/06/14 13:56:24;;;;;;;5.85;3.28;;;;;;;;;;6149314;23;20025;-82
2023/06/14 13:58:59;;;;;;;5.18;3.60;;;;;;;;;;6148451;23;20025;-86
2023/06/14 14:01:28;;;;;;;4.18;3.40;;;;;;;;;;6147916;23;20084;-83
2023/06/14 14:04:02;;;;;;;5.97;4.03;;;;;;;;;;6145329;23;20530;-83
2023/06/14 14:06:29;;;;;;;6.45;3.17;;;;;;;;;;6149056;23;20133;-85
2023/06/14 14:08:57;;;;;;;5.20;3.30;;;;;;;;;;6148812;23;20029;-83
2023/06/14 14:11:33;;;;;;;8.48;3.65;;;;;;;;;;6126044;23;20696;-85
2023/06/14 14:14:01;;;;;;;8.27;3.58;;;;;;;;;;6150788;23;20204;-84
2023/06/14 14:16:36;;;;;;;7.38;3.85;;;;;;;;;;6125031;23;20121;-82
2023/06/14 14:19:04;;;;;;;7.55;3.72;;;;;;;;;;6122905;23;20025;-83
2023/06/14 14:21:31;;;;;;;5.57;3.67;;;;;;;;;;6150090;23;20025;-84
2023/06/14 14:24:05;;;;;;;6.18;3.45;;;;;;;;;;6125151;23;20394;-85
2023/06/14 14:26:32;;;;;;;9.48;4.30;;;;;;;;;;6150269;23;20053;-81
2023/06/14 14:29:06;;;;;;;6.35;3.50;;;;;;;;;;6147704;23;20029;-83
2023/06/14 14:31:33;;;;;;;5.00;3.00;;;;;;;;;;6149703;23;20458;-84
2023/06/14 14:34:01;;;;;;;4.90;3.47;;;;;;;;;;6149563;23;20033;-84
2023/06/14 14:36:37;;;;;;;4.72;3.63;;;;;;;;;;6150119;23;20459;-84
2023/06/14 14:39:05;;;;;;;7.45;3.42;;;;;;;;;;6149707;23;20033;-84
2023/06/14 14:41:39;;;;;;;4.32;3.50;;;;;;;;;;6149242;23;20538;-84
2023/06/14 14:44:15;;;;;;;7.10;3.45;;;;;;;;;;6148757;23;20034;-83
2023/06/14 14:46:56;;;;;;;15.52;3.38;;;;;;;;;;6120919;23;20026;-83
2023/06/14 14:49:23;;;;;;;7.47;3.63;;;;;;;;;;6120995;23;20105;-83
2023/06/14 14:51:57;;;;;;;7.15;4.25;;;;;;;;;;6120108;23;20081;-84
2023/06/14 14:54:44;;;;;;;5.40;3.70;;;;;;;;;;6115690;23;20133;-83
2023/06/14 14:57:18;;;;;;;5.18;3.45;;;;;;;;;;6121545;23;20455;-84
2023/06/14 14:59:45;;;;;;;6.43;3.38;;;;;;;;;;6118482;23;20033;-84
2023/06/14 15:02:13;;;;;;;7.45;3.72;;;;;;;;;;6087104;23;20022;-83
2023/06/14 15:04:46;;;;;;;6.43;3.60;;;;;;;;;;6117766;23;20029;-86
2023/06/14 15:07:14;;;;;;;5.20;3.63;;;;;;;;;;6116271;23;20026;-85
2023/06/14 15:09:51;;;;;;;7.65;3.42;;;;;;;;;;6116122;23;20026;-84
2023/06/14 15:12:20;;;;;;;5.60;3.63;;;;;;;;;;6119974;23;20022;-83
2023/06/14 15:14:47;;;;;;;3.97;3.45;;;;;;;;;;6118446;23;20073;-84
2023/06/14 15:17:21;;;;;;;7.40;3.35;;;;;;;;;;6094493;23;20403;-84
2023/06/14 15:19:49;;;;;;;4.35;3.40;;;;;;;;;;6117250;23;20033;-84
2023/06/14 15:22:23;;;;;;;6.47;3.45;;;;;;;;;;6118032;23;20032;-84
2023/06/14 15:24:50;;;;;;;7.00;3.40;;;;;;;;;;6120246;23;20429;-83
2023/06/14 15:27:18;;;;;;;8.98;3.35;;;;;;;;;;6122063;23;20017;-83
2023/06/14 15:29:53;;;;;;;8.20;3.78;;;;;;;;;;6122202;23;20026;-82
2023/06/14 15:32:20;;;;;;;7.00;3.42;;;;;;;;;;6120013;23;20030;-85
2023/06/14 15:34:54;;;;;;;9.80;3.40;;;;;;;;;;6096748;23;20030;-83
2023/06/14 15:37:21;;;;;;;7.63;3.38;;;;;;;;;;6121012;23;20053;-83
2023/06/14 15:39:49;;;;;;;4.30;3.33;;;;;;;;;;6119407;23;20061;-82
2023/06/14 15:42:22;;;;;;;6.75;3.70;;;;;;;;;;6119872;23;20026;-83
2023/06/14 15:44:49;;;;;;;5.45;3.67;;;;;;;;;;6125477;23;20029;-83
2023/06/14 15:47:23;;;;;;;8.88;3.83;;;;;;;;;;6148850;23;20113;-84
2023/06/14 15:49:57;;;;;;;3.97;3.28;;;;;;;;;;6149876;23;20025;-83
2023/06/14 15:52:31;;;;;;;4.75;3.63;;;;;;;;;;6149102;23;20029;-83
2023/06/14 15:54:58;;;;;;;9.98;3.88;;;;;;;;;;6147896;23;20022;-83
2023/06/14 15:57:26;;;;;;;6.60;3.80;;;;;;;;;;6149835;23;20025;-83
2023/06/14 16:00:00;;;;;;;5.22;3.65;;;;;;;;;;6148088;23;20454;-82
2023/06/14 16:02:27;;;;;;;5.10;3.63;;;;;;;;;;6147630;23;20018;-83
2023/06/14 16:04:54;;;;;;;5.85;3.65;;;;;;;;;;6148878;23;20081;-81
2023/06/14 16:07:28;;;;;;;5.57;3.53;;;;;;;;;;6144915;23;20022;-83
2023/06/14 16:09:55;;;;;;;7.65;3.50;;;;;;;;;;6149306;23;20022;-84
2023/06/14 16:12:29;;;;;;;6.30;3.72;;;;;;;;;;6145252;23;20534;-83
2023/06/14 16:14:56;;;;;;;11.75;3.83;;;;;;;;;;6122727;23;20025;-83
2023/06/14 16:17:25;;;;;;;7.13;3.40;;;;;;;;;;6148626;23;20053;-83
2023/06/14 16:19:58;;;;;;;7.25;3.90;;;;;;;;;;6122645;23;20486;-82
2023/06/14 16:22:25;;;;;;;6.88;3.65;;;;;;;;;;6148030;23;20025;-83
2023/06/14 16:25:04;;;;;;;4.78;3.40;;;;;;;;;;6150387;23;20100;-83
2023/06/14 16:27:31;;;;;;;7.53;4.00;;;;;;;;;;6149724;23;20029;-83
2023/06/14 16:29:58;;;;;;;;;;;;;;;;;;6149997;23;20107;-83
2023/06/14 16:32:33;;;;;;;5.80;3.30;;;;;;;;;;6149712;23;19932;-84
2023/06/14 16:35:01;;;;;;;9.07;4.07;;;;;;;;;;6147525;23;20068;-82
2023/06/14 16:37:28;;;;;;;4.93;3.40;;;;;;;;;;6148206;23;20032;-83
2023/06/14 16:40:02;;;;;;;3.58;3.22;;;;;;;;;;6149472;23;20025;-81
2023/06/14 16:42:31;;;;;;;5.25;3.75;;;;;;;;;;6148423;23;20538;-83
2023/06/14 16:45:12;;;;;;;5.88;3.63;;;;;;;;;;6123771;23;20411;-84
2023/06/14 16:47:46;;;;;;;4.75;3.90;;;;;;;;;;6146517;23;20716;-83
2023/06/14 16:50:19;;;;;;;8.43;4.03;;;;;;;;;;6144891;23;20572;-83
2023/06/14 16:52:53;;;;;;;8.35;3.97;;;;;;;;;;6146428;23;20025;-84
2023/06/14 16:55:20;;;;;;;7.05;3.45;;;;;;;;;;6148699;23;20025;-83
2023/06/14 16:57:47;;;;;;;;;;;;;;;;;;6149523;23;20028;-82
2023/06/14 17:00:21;;;;;;;6.65;3.75;;;;;;;;;;6147419;23;20456;-83
2023/06/14 17:02:48;;;;;;;9.63;3.40;;;;;;;;;;6143680;23;20447;-83
2023/06/14 17:05:23;;;;;;;4.85;3.45;;;;;;;;;;6145266;23;20095;-81
2023/06/14 17:07:50;;;;;;;5.60;4.28;;;;;;;;;;6145226;23;20021;-82
2023/06/14 17:10:17;;;;;;;;;;;;;;;;;;6149039;23;20057;-83
2023/06/14 17:12:51;;;;;;;5.90;3.30;;;;;;;;;;6146528;23;19924;-82
2023/06/14 17:15:18;;;;;;;;;;;;;;;;;;6147569;23;20022;-83
2023/06/14 17:17:52;;;;;;;5.88;3.58;;;;;;;;;;6146322;23;19967;-83
2023/06/14 17:20:21;;;;;;;8.27;3.30;;;;;;;;;;6145909;23;20459;-83
2023/06/14 17:22:56;;;;;;;9.38;3.75;;;;;;;;;;6141708;23;20028;-82
2023/06/14 17:25:23;;;;;;;6.03;3.55;;;;;;;;;;6143290;23;20026;-82
2023/06/14 17:27:50;;;;;;;;;;;;;;;;;;6145196;23;20080;-82
2023/06/14 17:30:24;;;;;;;7.03;3.45;;;;;;;;;;6144624;23;20512;-81
2023/06/14 17:32:51;;;;;;;;;;;;;;;;;;6144406;23;20040;-81
2023/06/14 17:35:18;;;;;;;11.60;3.97;;;;;;;;;;6145330;23;19967;-82